FHY603 LTAI-UGSB
Flight info
| Callsign | FHY603 |
|---|---|
| Flight time | 1h 32m |
| Altitude | 37000 |
| Route | VAPE1F VAPEK DCT SIV UW706 TBN UG67 ODZOL UN37 ATPUM UG67 ZUBRE UN37 IFEMU UG67 LAFNE UN37 SARPI |
| Aircraft | A320/M-SDE3FGHIRWY/LB1 |
Departure
| Time | 2026-05-07 19:40 |
|---|---|
| Airport | Antalya International Airport (LTAI) |
Arrival
| Time | 2026-05-07 21:12 |
|---|---|
| Airport | Alexander Kartveli Batumi International Airport (UGSB) |
| Time | Latitude | Longitude | Altitude | Speed | Heading |
|---|---|---|---|---|---|
| 2026-05-07 19:09 | 36.91118 | 30.80091 | 177 ft | 0 kts | 95° |
| 2026-05-07 19:23 | 36.91119 | 30.80088 | 177 ft | 1 kts | 95° |
| 2026-05-07 19:24 | 36.91120 | 30.80070 | 177 ft | 2 kts | 95° |
| 2026-05-07 19:24 | 36.91121 | 30.80052 | 177 ft | 2 kts | 95° |
| 2026-05-07 19:24 | 36.91122 | 30.80033 | 177 ft | 2 kts | 95° |
| 2026-05-07 19:24 | 36.91124 | 30.80014 | 177 ft | 2 kts | 95° |
| 2026-05-07 19:25 | 36.91125 | 30.79996 | 177 ft | 2 kts | 95° |
| 2026-05-07 19:25 | 36.91127 | 30.79977 | 177 ft | 2 kts | 95° |
| 2026-05-07 19:25 | 36.91128 | 30.79959 | 177 ft | 1 kts | 111° |
| 2026-05-07 19:25 | 36.91132 | 30.79950 | 177 ft | 1 kts | 141° |
| 2026-05-07 19:26 | 36.91138 | 30.79945 | 177 ft | 0 kts | 142° |
| 2026-05-07 19:27 | 36.91134 | 30.79950 | 177 ft | 2 kts | 142° |
| 2026-05-07 19:27 | 36.91115 | 30.79956 | 177 ft | 3 kts | 182° |
| 2026-05-07 19:28 | 36.91090 | 30.79953 | 177 ft | 4 kts | 185° |
| 2026-05-07 19:28 | 36.91039 | 30.79946 | 177 ft | 13 kts | 184° |
| 2026-05-07 19:28 | 36.90943 | 30.79932 | 177 ft | 7 kts | 186° |
| 2026-05-07 19:28 | 36.90900 | 30.79925 | 177 ft | 4 kts | 197° |
| 2026-05-07 19:29 | 36.90883 | 30.79899 | 177 ft | 3 kts | 265° |
| 2026-05-07 19:29 | 36.90886 | 30.79860 | 177 ft | 5 kts | 277° |
| 2026-05-07 19:29 | 36.90890 | 30.79810 | 177 ft | 6 kts | 275° |
| 2026-05-07 19:29 | 36.90896 | 30.79741 | 177 ft | 6 kts | 277° |
| 2026-05-07 19:30 | 36.90893 | 30.79712 | 177 ft | 2 kts | 233° |
| 2026-05-07 19:30 | 36.90870 | 30.79702 | 177 ft | 4 kts | 186° |
| 2026-05-07 19:30 | 36.90826 | 30.79695 | 177 ft | 12 kts | 186° |
| 2026-05-07 19:30 | 36.90675 | 30.79674 | 177 ft | 29 kts | 186° |
| 2026-05-07 19:31 | 36.90512 | 30.79652 | 177 ft | 16 kts | 185° |
| 2026-05-07 19:31 | 36.90437 | 30.79642 | 177 ft | 4 kts | 181° |
| 2026-05-07 19:31 | 36.90415 | 30.79658 | 177 ft | 4 kts | 122° |
| 2026-05-07 19:31 | 36.90407 | 30.79707 | 177 ft | 10 kts | 96° |
| 2026-05-07 19:32 | 36.90393 | 30.79864 | 177 ft | 24 kts | 97° |
| 2026-05-07 19:32 | 36.90375 | 30.80069 | 177 ft | 23 kts | 95° |
| 2026-05-07 19:32 | 36.90358 | 30.80266 | 177 ft | 22 kts | 96° |
| 2026-05-07 19:32 | 36.90342 | 30.80454 | 177 ft | 21 kts | 96° |
| 2026-05-07 19:33 | 36.90327 | 30.80635 | 177 ft | 16 kts | 96° |
| 2026-05-07 19:33 | 36.90318 | 30.80741 | 177 ft | 7 kts | 97° |
| 2026-05-07 19:33 | 36.90306 | 30.80779 | 177 ft | 2 kts | 139° |
| 2026-05-07 19:33 | 36.90283 | 30.80788 | 177 ft | 4 kts | 180° |
| 2026-05-07 19:34 | 36.90185 | 30.80774 | 177 ft | 23 kts | 186° |
| 2026-05-07 19:34 | 36.90005 | 30.80748 | 177 ft | 27 kts | 186° |
| 2026-05-07 19:34 | 36.89822 | 30.80723 | 177 ft | 25 kts | 186° |
| 2026-05-07 19:34 | 36.89646 | 30.80699 | 177 ft | 24 kts | 187° |
| 2026-05-07 19:35 | 36.89481 | 30.80676 | 177 ft | 23 kts | 186° |
| 2026-05-07 19:35 | 36.89322 | 30.80654 | 177 ft | 22 kts | 187° |
| 2026-05-07 19:35 | 36.89169 | 30.80633 | 177 ft | 21 kts | 186° |
| 2026-05-07 19:35 | 36.89014 | 30.80611 | 177 ft | 25 kts | 186° |
| 2026-05-07 19:36 | 36.88832 | 30.80586 | 177 ft | 25 kts | 187° |
| 2026-05-07 19:36 | 36.88659 | 30.80562 | 177 ft | 24 kts | 186° |
| 2026-05-07 19:36 | 36.88494 | 30.80540 | 177 ft | 23 kts | 185° |
| 2026-05-07 19:36 | 36.88337 | 30.80519 | 177 ft | 22 kts | 186° |
| 2026-05-07 19:37 | 36.88202 | 30.80500 | 177 ft | 10 kts | 186° |
| 2026-05-07 19:37 | 36.88165 | 30.80506 | 177 ft | 4 kts | 144° |
| 2026-05-07 19:37 | 36.88147 | 30.80537 | 177 ft | 4 kts | 99° |
| 2026-05-07 19:37 | 36.88144 | 30.80584 | 177 ft | 6 kts | 96° |
| 2026-05-07 19:38 | 36.88139 | 30.80643 | 176 ft | 7 kts | 96° |
| 2026-05-07 19:38 | 36.88142 | 30.80695 | 177 ft | 4 kts | 63° |
| 2026-05-07 19:38 | 36.88165 | 30.80725 | 176 ft | 4 kts | 32° |
| 2026-05-07 19:38 | 36.88195 | 30.80736 | 177 ft | 0 kts | 7° |
| 2026-05-07 19:39 | 36.88202 | 30.80737 | 176 ft | 6 kts | 6° |
| 2026-05-07 19:39 | 36.88502 | 30.80780 | 177 ft | 78 kts | 6° |
| 2026-05-07 19:39 | 36.89256 | 30.80882 | 177 ft | 138 kts | 6° |
| 2026-05-07 19:39 | 36.90366 | 30.81039 | 328 ft | 172 kts | 6° |
| 2026-05-07 19:40 | 36.91524 | 30.81223 | 988 ft | 169 kts | 9° |
| 2026-05-07 19:40 | 36.92662 | 30.81681 | 1556 ft | 175 kts | 24° |
| 2026-05-07 19:40 | 36.93726 | 30.82302 | 2305 ft | 168 kts | 24° |
| 2026-05-07 19:40 | 36.94835 | 30.82908 | 2689 ft | 183 kts | 22° |
| 2026-05-07 19:41 | 36.96093 | 30.83542 | 3006 ft | 204 kts | 21° |
| 2026-05-07 19:41 | 36.97442 | 30.84231 | 3495 ft | 218 kts | 28° |
| 2026-05-07 19:41 | 36.98512 | 30.85601 | 4021 ft | 232 kts | 65° |
| 2026-05-07 19:41 | 36.98772 | 30.87606 | 4615 ft | 246 kts | 93° |
| 2026-05-07 19:42 | 36.98546 | 30.89778 | 5109 ft | 262 kts | 95° |
| 2026-05-07 19:42 | 36.98318 | 30.92084 | 5735 ft | 272 kts | 94° |
| 2026-05-07 19:42 | 36.98105 | 30.94457 | 6558 ft | 275 kts | 93° |
| 2026-05-07 19:42 | 36.97903 | 30.96836 | 7375 ft | 277 kts | 93° |
| 2026-05-07 19:43 | 36.97706 | 30.99230 | 8160 ft | 281 kts | 93° |
| 2026-05-07 19:43 | 36.97503 | 31.01669 | 8949 ft | 285 kts | 93° |
| 2026-05-07 19:43 | 36.97297 | 31.04105 | 9709 ft | 288 kts | 93° |
| 2026-05-07 19:43 | 36.97084 | 31.06625 | 10416 ft | 293 kts | 93° |
| 2026-05-07 19:44 | 36.96906 | 31.09229 | 10835 ft | 308 kts | 90° |
| 2026-05-07 19:44 | 36.97091 | 31.11933 | 11149 ft | 320 kts | 68° |
| 2026-05-07 19:44 | 36.98219 | 31.14342 | 11543 ft | 330 kts | 48° |
| 2026-05-07 19:44 | 36.99742 | 31.16544 | 11969 ft | 342 kts | 46° |
| 2026-05-07 19:45 | 37.01337 | 31.18812 | 12570 ft | 347 kts | 46° |
| 2026-05-07 19:45 | 37.02945 | 31.21101 | 13212 ft | 351 kts | 46° |
| 2026-05-07 19:45 | 37.04551 | 31.23386 | 13837 ft | 355 kts | 46° |
| 2026-05-07 19:45 | 37.06177 | 31.25705 | 14382 ft | 360 kts | 46° |
| 2026-05-07 19:46 | 37.07857 | 31.28104 | 15012 ft | 364 kts | 45° |
| 2026-05-07 19:46 | 37.09513 | 31.30476 | 15648 ft | 367 kts | 45° |
| 2026-05-07 19:46 | 37.11225 | 31.32916 | 16264 ft | 371 kts | 44° |
| 2026-05-07 19:46 | 37.12923 | 31.35328 | 16844 ft | 375 kts | 44° |
| 2026-05-07 19:47 | 37.14663 | 31.37803 | 17432 ft | 379 kts | 44° |
| 2026-05-07 19:47 | 37.16406 | 31.40291 | 18014 ft | 383 kts | 44° |
| 2026-05-07 19:47 | 37.18169 | 31.42813 | 18622 ft | 386 kts | 44° |
| 2026-05-07 19:47 | 37.19936 | 31.45346 | 19219 ft | 388 kts | 44° |
| 2026-05-07 19:48 | 37.21717 | 31.47904 | 19784 ft | 391 kts | 44° |
| 2026-05-07 19:48 | 37.23502 | 31.50474 | 20344 ft | 394 kts | 44° |
| 2026-05-07 19:48 | 37.25293 | 31.53054 | 20879 ft | 396 kts | 44° |
| 2026-05-07 19:48 | 37.27113 | 31.55678 | 21388 ft | 399 kts | 44° |
| 2026-05-07 19:49 | 37.28941 | 31.58317 | 21886 ft | 402 kts | 44° |
| 2026-05-07 19:49 | 37.30792 | 31.60990 | 22399 ft | 405 kts | 44° |
| 2026-05-07 19:49 | 37.32630 | 31.63643 | 22880 ft | 408 kts | 44° |
| 2026-05-07 19:49 | 37.34487 | 31.66337 | 23364 ft | 411 kts | 45° |
| 2026-05-07 19:50 | 37.36305 | 31.69166 | 23846 ft | 415 kts | 48° |
| 2026-05-07 19:50 | 37.37989 | 31.72101 | 24301 ft | 420 kts | 51° |
| 2026-05-07 19:50 | 37.39576 | 31.75173 | 24750 ft | 423 kts | 52° |
| 2026-05-07 19:50 | 37.41170 | 31.78335 | 25184 ft | 426 kts | 53° |
| 2026-05-07 19:51 | 37.42749 | 31.81486 | 25608 ft | 428 kts | 53° |
| 2026-05-07 19:51 | 37.44327 | 31.84635 | 26026 ft | 430 kts | 53° |
| 2026-05-07 19:51 | 37.45935 | 31.87845 | 26425 ft | 433 kts | 52° |
| 2026-05-07 19:51 | 37.47535 | 31.91039 | 26812 ft | 435 kts | 52° |
| 2026-05-07 19:52 | 37.49138 | 31.94242 | 27181 ft | 437 kts | 52° |
| 2026-05-07 19:52 | 37.50756 | 31.97478 | 27554 ft | 439 kts | 52° |
| 2026-05-07 19:52 | 37.52393 | 32.00755 | 28029 ft | 438 kts | 52° |
| 2026-05-07 19:52 | 37.53984 | 32.03944 | 28550 ft | 436 kts | 52° |
| 2026-05-07 19:53 | 37.55606 | 32.07196 | 29030 ft | 434 kts | 52° |
| 2026-05-07 19:53 | 37.57190 | 32.10373 | 29489 ft | 433 kts | 52° |
| 2026-05-07 19:53 | 37.58786 | 32.13582 | 29961 ft | 432 kts | 52° |
| 2026-05-07 19:53 | 37.60379 | 32.16781 | 30414 ft | 431 kts | 52° |
| 2026-05-07 19:54 | 37.61960 | 32.19961 | 30857 ft | 430 kts | 51° |
| 2026-05-07 19:54 | 37.63547 | 32.23155 | 31267 ft | 429 kts | 51° |
| 2026-05-07 19:54 | 37.65124 | 32.26330 | 31652 ft | 429 kts | 51° |
| 2026-05-07 19:54 | 37.66707 | 32.29522 | 32039 ft | 429 kts | 51° |
| 2026-05-07 19:55 | 37.68288 | 32.32712 | 32425 ft | 428 kts | 51° |
| 2026-05-07 19:55 | 37.69846 | 32.35859 | 32774 ft | 428 kts | 51° |
| 2026-05-07 19:55 | 37.71419 | 32.39042 | 33131 ft | 427 kts | 51° |
| 2026-05-07 19:55 | 37.72988 | 32.42219 | 33461 ft | 427 kts | 51° |
| 2026-05-07 19:56 | 37.74559 | 32.45405 | 33758 ft | 427 kts | 51° |
| 2026-05-07 19:56 | 37.76123 | 32.48573 | 33985 ft | 429 kts | 51° |
| 2026-05-07 19:56 | 37.77705 | 32.51783 | 34233 ft | 430 kts | 51° |
| 2026-05-07 19:56 | 37.79274 | 32.54977 | 34443 ft | 431 kts | 51° |
| 2026-05-07 19:57 | 37.80862 | 32.58205 | 34627 ft | 432 kts | 51° |
| 2026-05-07 19:57 | 37.82431 | 32.61399 | 34814 ft | 432 kts | 51° |
| 2026-05-07 19:57 | 37.84005 | 32.64608 | 34982 ft | 433 kts | 51° |
| 2026-05-07 19:57 | 37.85609 | 32.67889 | 35138 ft | 435 kts | 52° |
| 2026-05-07 19:58 | 37.88786 | 32.74416 | 35207 ft | 437 kts | 52° |
| 2026-05-07 19:58 | 37.91960 | 32.80938 | 35219 ft | 436 kts | 52° |
| 2026-05-07 19:59 | 37.95127 | 32.87448 | 35220 ft | 435 kts | 51° |
| 2026-05-07 19:59 | 37.98295 | 32.93961 | 35218 ft | 436 kts | 52° |
| 2026-05-07 20:00 | 38.01450 | 33.00463 | 35215 ft | 436 kts | 51° |
| 2026-05-07 20:00 | 38.04619 | 33.07010 | 35216 ft | 436 kts | 51° |
| 2026-05-07 20:01 | 38.07810 | 33.13603 | 35222 ft | 443 kts | 51° |
| 2026-05-07 20:01 | 38.11060 | 33.20325 | 35221 ft | 451 kts | 52° |
| 2026-05-07 20:02 | 38.14378 | 33.27158 | 35218 ft | 459 kts | 52° |
| 2026-05-07 20:02 | 38.17722 | 33.34094 | 35213 ft | 461 kts | 52° |
| 2026-05-07 20:03 | 38.21048 | 33.41028 | 35209 ft | 461 kts | 52° |
| 2026-05-07 20:03 | 38.24365 | 33.47964 | 35206 ft | 460 kts | 52° |
| 2026-05-07 20:04 | 38.27665 | 33.54877 | 35209 ft | 460 kts | 52° |
| 2026-05-07 20:04 | 38.30964 | 33.61805 | 35210 ft | 460 kts | 52° |
| 2026-05-07 20:05 | 38.34262 | 33.68758 | 35210 ft | 460 kts | 53° |
| 2026-05-07 20:05 | 38.37569 | 33.75765 | 35211 ft | 460 kts | 53° |
| 2026-05-07 20:06 | 38.40854 | 33.82723 | 35208 ft | 461 kts | 53° |
| 2026-05-07 20:06 | 38.44141 | 33.89692 | 35210 ft | 460 kts | 53° |
| 2026-05-07 20:07 | 38.47439 | 33.96696 | 35213 ft | 460 kts | 53° |
| 2026-05-07 20:07 | 38.50724 | 34.03681 | 35213 ft | 460 kts | 53° |
| 2026-05-07 20:08 | 38.53990 | 34.10643 | 35205 ft | 460 kts | 53° |
| 2026-05-07 20:08 | 38.57278 | 34.17670 | 35214 ft | 461 kts | 53° |
| 2026-05-07 20:09 | 38.60537 | 34.24650 | 35213 ft | 460 kts | 53° |
| 2026-05-07 20:10 | 38.65446 | 34.35189 | 35204 ft | 460 kts | 53° |
| 2026-05-07 20:10 | 38.68711 | 34.42220 | 35191 ft | 460 kts | 53° |
| 2026-05-07 20:11 | 38.71977 | 34.49265 | 35186 ft | 461 kts | 53° |
| 2026-05-07 20:11 | 38.75228 | 34.56298 | 35181 ft | 461 kts | 53° |
| 2026-05-07 20:12 | 38.78489 | 34.63369 | 35175 ft | 460 kts | 53° |
| 2026-05-07 20:12 | 38.81747 | 34.70464 | 35187 ft | 461 kts | 54° |
| 2026-05-07 20:13 | 38.84972 | 34.77512 | 35192 ft | 462 kts | 54° |
| 2026-05-07 20:13 | 38.88220 | 34.84616 | 35211 ft | 461 kts | 54° |
| 2026-05-07 20:14 | 38.91451 | 34.91684 | 35201 ft | 462 kts | 54° |
| 2026-05-07 20:14 | 38.94691 | 34.98786 | 35207 ft | 462 kts | 54° |
| 2026-05-07 20:15 | 38.97932 | 35.05906 | 35219 ft | 462 kts | 54° |
| 2026-05-07 20:15 | 39.01165 | 35.13024 | 35222 ft | 462 kts | 54° |
| 2026-05-07 20:16 | 39.04380 | 35.20116 | 35223 ft | 461 kts | 54° |
| 2026-05-07 20:16 | 39.07599 | 35.27234 | 35227 ft | 461 kts | 54° |
| 2026-05-07 20:17 | 39.10811 | 35.34349 | 35229 ft | 462 kts | 54° |
| 2026-05-07 20:17 | 39.14053 | 35.41487 | 35228 ft | 462 kts | 54° |
| 2026-05-07 20:18 | 39.17269 | 35.48614 | 35226 ft | 462 kts | 54° |
| 2026-05-07 20:18 | 39.20477 | 35.55757 | 35227 ft | 462 kts | 54° |
| 2026-05-07 20:19 | 39.23676 | 35.62911 | 35228 ft | 462 kts | 54° |
| 2026-05-07 20:19 | 39.26889 | 35.70133 | 35229 ft | 462 kts | 55° |
| 2026-05-07 20:20 | 39.30065 | 35.77298 | 35227 ft | 462 kts | 55° |
| 2026-05-07 20:20 | 39.33246 | 35.84476 | 35227 ft | 462 kts | 55° |
| 2026-05-07 20:21 | 39.36431 | 35.91671 | 35230 ft | 462 kts | 55° |
| 2026-05-07 20:21 | 39.39610 | 35.98865 | 35226 ft | 462 kts | 55° |
| 2026-05-07 20:22 | 39.42782 | 36.06058 | 35223 ft | 462 kts | 56° |
| 2026-05-07 20:22 | 39.45958 | 36.13277 | 35224 ft | 462 kts | 56° |
| 2026-05-07 20:23 | 39.49119 | 36.20482 | 35225 ft | 463 kts | 56° |
| 2026-05-07 20:23 | 39.52287 | 36.27718 | 35228 ft | 462 kts | 56° |
| 2026-05-07 20:24 | 39.55444 | 36.34940 | 35223 ft | 462 kts | 56° |
| 2026-05-07 20:24 | 39.58590 | 36.42163 | 35225 ft | 462 kts | 56° |
| 2026-05-07 20:25 | 39.61731 | 36.49387 | 35234 ft | 461 kts | 56° |
| 2026-05-07 20:25 | 39.64864 | 36.56609 | 35236 ft | 462 kts | 56° |
| 2026-05-07 20:26 | 39.67995 | 36.63845 | 35239 ft | 462 kts | 56° |
| 2026-05-07 20:26 | 39.71125 | 36.71119 | 35246 ft | 462 kts | 57° |
| 2026-05-07 20:27 | 39.74255 | 36.78413 | 35242 ft | 461 kts | 57° |
| 2026-05-07 20:27 | 39.77375 | 36.85677 | 35232 ft | 462 kts | 57° |
| 2026-05-07 20:28 | 39.80492 | 36.92911 | 35229 ft | 462 kts | 57° |
| 2026-05-07 20:28 | 39.83656 | 37.00178 | 35235 ft | 463 kts | 57° |
| 2026-05-07 20:29 | 39.86813 | 37.07446 | 35242 ft | 462 kts | 57° |
| 2026-05-07 20:29 | 39.89960 | 37.14718 | 35246 ft | 462 kts | 57° |
| 2026-05-07 20:30 | 39.93098 | 37.21988 | 35235 ft | 462 kts | 57° |
| 2026-05-07 20:30 | 39.96239 | 37.29278 | 35223 ft | 461 kts | 57° |
| 2026-05-07 20:31 | 39.99363 | 37.36550 | 35223 ft | 461 kts | 57° |
| 2026-05-07 20:31 | 40.02484 | 37.43835 | 35229 ft | 461 kts | 57° |
| 2026-05-07 20:32 | 40.05586 | 37.51091 | 35224 ft | 461 kts | 57° |
| 2026-05-07 20:32 | 40.08708 | 37.58406 | 35225 ft | 461 kts | 57° |
| 2026-05-07 20:33 | 40.11854 | 37.65719 | 35195 ft | 460 kts | 57° |
| 2026-05-07 20:33 | 40.13422 | 37.69357 | 35361 ft | 460 kts | 57° |
| 2026-05-07 20:33 | 40.14981 | 37.72992 | 35295 ft | 459 kts | 57° |
| 2026-05-07 20:34 | 40.18092 | 37.80280 | 35246 ft | 459 kts | 57° |
| 2026-05-07 20:34 | 40.21182 | 37.87537 | 35239 ft | 459 kts | 58° |
| 2026-05-07 20:35 | 40.24251 | 37.94768 | 35239 ft | 457 kts | 58° |
| 2026-05-07 20:35 | 40.27335 | 38.02054 | 35242 ft | 457 kts | 58° |
| 2026-05-07 20:36 | 40.30389 | 38.09287 | 35238 ft | 457 kts | 58° |
| 2026-05-07 20:36 | 40.33464 | 38.16607 | 35239 ft | 458 kts | 58° |
| 2026-05-07 20:37 | 40.36413 | 38.23967 | 35234 ft | 458 kts | 59° |
| 2026-05-07 20:37 | 40.39393 | 38.31296 | 35216 ft | 457 kts | 57° |
| 2026-05-07 20:38 | 40.42539 | 38.38535 | 35209 ft | 457 kts | 57° |
| 2026-05-07 20:38 | 40.45657 | 38.45742 | 35205 ft | 457 kts | 57° |
| 2026-05-07 20:39 | 40.48771 | 38.53007 | 35206 ft | 457 kts | 57° |
| 2026-05-07 20:39 | 40.51848 | 38.60266 | 35200 ft | 457 kts | 58° |
| 2026-05-07 20:40 | 40.54844 | 38.67611 | 35200 ft | 458 kts | 59° |
| 2026-05-07 20:40 | 40.57839 | 38.75011 | 35211 ft | 458 kts | 59° |
| 2026-05-07 20:41 | 40.60829 | 38.82378 | 35220 ft | 458 kts | 59° |
| 2026-05-07 20:41 | 40.63818 | 38.89745 | 35214 ft | 458 kts | 59° |
| 2026-05-07 20:42 | 40.66810 | 38.97153 | 35219 ft | 458 kts | 59° |
| 2026-05-07 20:42 | 40.69782 | 39.04542 | 35212 ft | 457 kts | 59° |
| 2026-05-07 20:43 | 40.72748 | 39.11936 | 34921 ft | 457 kts | 59° |
| 2026-05-07 20:43 | 40.74222 | 39.15619 | 34677 ft | 453 kts | 59° |
| 2026-05-07 20:43 | 40.75716 | 39.19356 | 34440 ft | 451 kts | 59° |
| 2026-05-07 20:43 | 40.77166 | 39.22986 | 34210 ft | 448 kts | 59° |
| 2026-05-07 20:44 | 40.78614 | 39.26615 | 33973 ft | 446 kts | 59° |
| 2026-05-07 20:44 | 40.80043 | 39.30204 | 33745 ft | 445 kts | 59° |
| 2026-05-07 20:44 | 40.81476 | 39.33801 | 33552 ft | 445 kts | 59° |
| 2026-05-07 20:44 | 40.82916 | 39.37424 | 33347 ft | 444 kts | 59° |
| 2026-05-07 20:45 | 40.84352 | 39.41037 | 33143 ft | 444 kts | 59° |
| 2026-05-07 20:45 | 40.85772 | 39.44616 | 32943 ft | 444 kts | 59° |
| 2026-05-07 20:45 | 40.87216 | 39.48262 | 32747 ft | 444 kts | 59° |
| 2026-05-07 20:45 | 40.88637 | 39.51855 | 32567 ft | 444 kts | 59° |
| 2026-05-07 20:46 | 40.90055 | 39.55447 | 32389 ft | 443 kts | 59° |
| 2026-05-07 20:46 | 40.91495 | 39.59096 | 32203 ft | 443 kts | 59° |
| 2026-05-07 20:46 | 40.92909 | 39.62683 | 32024 ft | 443 kts | 59° |
| 2026-05-07 20:46 | 40.94337 | 39.66315 | 31842 ft | 443 kts | 60° |
| 2026-05-07 20:47 | 40.95743 | 39.69907 | 31664 ft | 443 kts | 60° |
| 2026-05-07 20:47 | 40.97153 | 39.73514 | 31485 ft | 442 kts | 60° |
| 2026-05-07 20:47 | 40.98573 | 39.77140 | 31305 ft | 441 kts | 60° |
| 2026-05-07 20:47 | 40.99937 | 39.80776 | 31064 ft | 441 kts | 63° |
| 2026-05-07 20:48 | 41.01210 | 39.84430 | 30592 ft | 441 kts | 63° |
| 2026-05-07 20:48 | 41.02484 | 39.88134 | 29901 ft | 440 kts | 63° |
| 2026-05-07 20:48 | 41.03727 | 39.91763 | 29468 ft | 434 kts | 63° |
| 2026-05-07 20:48 | 41.04958 | 39.95358 | 29040 ft | 431 kts | 63° |
| 2026-05-07 20:49 | 41.06199 | 39.98983 | 28580 ft | 427 kts | 63° |
| 2026-05-07 20:49 | 41.07433 | 40.02587 | 28104 ft | 424 kts | 63° |
| 2026-05-07 20:49 | 41.08636 | 40.06103 | 27630 ft | 421 kts | 63° |
| 2026-05-07 20:49 | 41.09829 | 40.09592 | 27145 ft | 417 kts | 63° |
| 2026-05-07 20:50 | 41.11021 | 40.13067 | 26664 ft | 414 kts | 63° |
| 2026-05-07 20:50 | 41.12236 | 40.16591 | 26153 ft | 411 kts | 63° |
| 2026-05-07 20:50 | 41.13407 | 40.20009 | 25647 ft | 407 kts | 64° |
| 2026-05-07 20:50 | 41.14558 | 40.23387 | 25156 ft | 404 kts | 64° |
| 2026-05-07 20:51 | 41.15709 | 40.26784 | 24670 ft | 400 kts | 64° |
| 2026-05-07 20:51 | 41.16840 | 40.30129 | 24181 ft | 397 kts | 64° |
| 2026-05-07 20:51 | 41.17954 | 40.33435 | 23706 ft | 394 kts | 64° |
| 2026-05-07 20:51 | 41.19066 | 40.36730 | 23240 ft | 390 kts | 64° |
| 2026-05-07 20:52 | 41.20180 | 40.40032 | 22776 ft | 387 kts | 64° |
| 2026-05-07 20:52 | 41.21269 | 40.43252 | 22313 ft | 384 kts | 64° |
| 2026-05-07 20:52 | 41.22363 | 40.46490 | 21854 ft | 381 kts | 64° |
| 2026-05-07 20:52 | 41.23432 | 40.49658 | 21398 ft | 378 kts | 64° |
| 2026-05-07 20:53 | 41.24501 | 40.52835 | 20948 ft | 375 kts | 64° |
| 2026-05-07 20:53 | 41.25567 | 40.56002 | 20498 ft | 372 kts | 64° |
| 2026-05-07 20:53 | 41.26617 | 40.59132 | 20049 ft | 370 kts | 64° |
| 2026-05-07 20:53 | 41.27654 | 40.62224 | 19583 ft | 368 kts | 64° |
| 2026-05-07 20:54 | 41.28696 | 40.65337 | 19114 ft | 366 kts | 65° |
| 2026-05-07 20:54 | 41.29728 | 40.68438 | 18666 ft | 364 kts | 65° |
| 2026-05-07 20:54 | 41.30740 | 40.71486 | 18216 ft | 362 kts | 65° |
| 2026-05-07 20:54 | 41.31753 | 40.74539 | 17795 ft | 360 kts | 65° |
| 2026-05-07 20:55 | 41.32761 | 40.77570 | 17358 ft | 358 kts | 65° |
| 2026-05-07 20:55 | 41.33760 | 40.80576 | 16904 ft | 356 kts | 65° |
| 2026-05-07 20:55 | 41.34752 | 40.83561 | 16435 ft | 354 kts | 65° |
| 2026-05-07 20:55 | 41.35741 | 40.86543 | 15999 ft | 352 kts | 65° |
| 2026-05-07 20:56 | 41.36721 | 40.89501 | 15568 ft | 350 kts | 65° |
| 2026-05-07 20:56 | 41.37697 | 40.92446 | 15143 ft | 348 kts | 65° |
| 2026-05-07 20:56 | 41.38676 | 40.95404 | 14700 ft | 347 kts | 65° |
| 2026-05-07 20:56 | 41.39641 | 40.98323 | 14265 ft | 345 kts | 65° |
| 2026-05-07 20:57 | 41.40602 | 41.01237 | 13800 ft | 344 kts | 65° |
| 2026-05-07 20:57 | 41.41558 | 41.04137 | 13363 ft | 342 kts | 65° |
| 2026-05-07 20:57 | 41.42507 | 41.07019 | 12941 ft | 341 kts | 65° |
| 2026-05-07 20:57 | 41.43464 | 41.09925 | 12508 ft | 339 kts | 65° |
| 2026-05-07 20:58 | 41.44398 | 41.12768 | 12093 ft | 337 kts | 65° |
| 2026-05-07 20:58 | 41.45333 | 41.15619 | 11671 ft | 336 kts | 65° |
| 2026-05-07 20:58 | 41.46265 | 41.18469 | 11240 ft | 334 kts | 65° |
| 2026-05-07 20:58 | 41.47189 | 41.21299 | 10813 ft | 333 kts | 65° |
| 2026-05-07 20:59 | 41.48101 | 41.24094 | 10516 ft | 326 kts | 65° |
| 2026-05-07 20:59 | 41.48993 | 41.26828 | 10438 ft | 311 kts | 65° |
| 2026-05-07 20:59 | 41.49838 | 41.29412 | 10349 ft | 298 kts | 65° |
| 2026-05-07 20:59 | 41.50648 | 41.31892 | 10284 ft | 284 kts | 65° |
| 2026-05-07 21:00 | 41.51419 | 41.34258 | 10146 ft | 279 kts | 65° |
| 2026-05-07 21:00 | 41.52190 | 41.36617 | 9810 ft | 279 kts | 65° |
| 2026-05-07 21:00 | 41.52958 | 41.38981 | 9485 ft | 278 kts | 65° |
| 2026-05-07 21:00 | 41.53721 | 41.41328 | 9190 ft | 276 kts | 65° |
| 2026-05-07 21:01 | 41.54480 | 41.43664 | 8872 ft | 274 kts | 65° |
| 2026-05-07 21:01 | 41.55241 | 41.46015 | 8552 ft | 272 kts | 65° |
| 2026-05-07 21:01 | 41.55976 | 41.48310 | 8177 ft | 271 kts | 65° |
| 2026-05-07 21:01 | 41.56715 | 41.50624 | 7935 ft | 268 kts | 66° |
| 2026-05-07 21:02 | 41.57431 | 41.52871 | 7661 ft | 264 kts | 65° |
| 2026-05-07 21:02 | 41.58139 | 41.55092 | 7536 ft | 253 kts | 65° |
| 2026-05-07 21:02 | 41.58810 | 41.57200 | 7502 ft | 243 kts | 65° |
| 2026-05-07 21:02 | 41.59597 | 41.59182 | 7266 ft | 243 kts | 45° |
| 2026-05-07 21:03 | 41.60996 | 41.60387 | 6992 ft | 238 kts | 13° |
| 2026-05-07 21:03 | 41.62629 | 41.60466 | 6724 ft | 234 kts | 344° |
| 2026-05-07 21:03 | 41.64172 | 41.59816 | 6486 ft | 233 kts | 340° |
| 2026-05-07 21:03 | 41.65707 | 41.59124 | 6236 ft | 232 kts | 340° |
| 2026-05-07 21:04 | 41.67240 | 41.58452 | 5984 ft | 232 kts | 340° |
| 2026-05-07 21:04 | 41.68771 | 41.57796 | 5734 ft | 232 kts | 341° |
| 2026-05-07 21:04 | 41.70325 | 41.57137 | 5478 ft | 232 kts | 341° |
| 2026-05-07 21:04 | 41.71864 | 41.56489 | 5222 ft | 232 kts | 341° |
| 2026-05-07 21:05 | 41.73394 | 41.55846 | 4978 ft | 230 kts | 341° |
| 2026-05-07 21:05 | 41.74907 | 41.55213 | 4911 ft | 227 kts | 341° |
| 2026-05-07 21:05 | 41.76378 | 41.54431 | 4683 ft | 226 kts | 322° |
| 2026-05-07 21:05 | 41.77255 | 41.52785 | 4399 ft | 215 kts | 283° |
| 2026-05-07 21:06 | 41.77257 | 41.50856 | 4154 ft | 206 kts | 251° |
| 2026-05-07 21:06 | 41.76687 | 41.49107 | 4112 ft | 207 kts | 244° |
| 2026-05-07 21:06 | 41.76105 | 41.47398 | 4035 ft | 194 kts | 245° |
| 2026-05-07 21:06 | 41.75574 | 41.45815 | 3783 ft | 182 kts | 242° |
| 2026-05-07 21:07 | 41.74797 | 41.44566 | 3556 ft | 170 kts | 216° |
| 2026-05-07 21:07 | 41.73770 | 41.43901 | 3347 ft | 160 kts | 187° |
| 2026-05-07 21:07 | 41.72696 | 41.43991 | 3074 ft | 155 kts | 165° |
| 2026-05-07 21:07 | 41.71667 | 41.44402 | 2751 ft | 155 kts | 151° |
| 2026-05-07 21:08 | 41.70789 | 41.45188 | 2606 ft | 154 kts | 137° |
| 2026-05-07 21:08 | 41.69999 | 41.46180 | 2502 ft | 154 kts | 131° |
| 2026-05-07 21:08 | 41.69273 | 41.47236 | 2299 ft | 152 kts | 129° |
| 2026-05-07 21:08 | 41.68580 | 41.48298 | 2081 ft | 152 kts | 129° |
| 2026-05-07 21:09 | 41.67890 | 41.49368 | 1875 ft | 152 kts | 128° |
| 2026-05-07 21:09 | 41.67219 | 41.50403 | 1664 ft | 142 kts | 128° |
| 2026-05-07 21:09 | 41.66586 | 41.51377 | 1487 ft | 136 kts | 128° |
| 2026-05-07 21:09 | 41.65964 | 41.52331 | 1309 ft | 136 kts | 129° |
| 2026-05-07 21:10 | 41.65342 | 41.53288 | 1129 ft | 135 kts | 127° |
| 2026-05-07 21:10 | 41.64717 | 41.54216 | 923 ft | 135 kts | 129° |
| 2026-05-07 21:10 | 41.64106 | 41.55160 | 742 ft | 134 kts | 129° |
| 2026-05-07 21:10 | 41.63500 | 41.56109 | 570 ft | 133 kts | 126° |
| 2026-05-07 21:11 | 41.62897 | 41.57048 | 418 ft | 133 kts | 128° |
| 2026-05-07 21:11 | 41.62283 | 41.57976 | 243 ft | 133 kts | 128° |
| 2026-05-07 21:11 | 41.61120 | 41.59787 | 21 ft | 105 kts | 130° |
| 2026-05-07 21:12 | 41.60744 | 41.60365 | 25 ft | 64 kts | 130° |
| 2026-05-07 21:12 | 41.60563 | 41.60643 | 25 ft | 18 kts | 130° |
| 2026-05-07 21:12 | 41.60515 | 41.60718 | 25 ft | 6 kts | 129° |
| 2026-05-07 21:12 | 41.60511 | 41.60724 | 25 ft | 1 kts | 129° |
| 2026-05-07 21:13 | 41.60500 | 41.60741 | 25 ft | 3 kts | 131° |
| 2026-05-07 21:13 | 41.60485 | 41.60777 | 25 ft | 4 kts | 94° |
| 2026-05-07 21:13 | 41.60492 | 41.60822 | 26 ft | 5 kts | 75° |
| 2026-05-07 21:13 | 41.60502 | 41.60875 | 27 ft | 6 kts | 76° |
| 2026-05-07 21:14 | 41.60513 | 41.60935 | 29 ft | 6 kts | 75° |
| 2026-05-07 21:14 | 41.60524 | 41.60994 | 30 ft | 5 kts | 74° |
| 2026-05-07 21:14 | 41.60535 | 41.61024 | 30 ft | 2 kts | 31° |
| 2026-05-07 21:14 | 41.60548 | 41.61023 | 31 ft | 1 kts | 323° |
| 2026-05-07 21:15 | 41.60560 | 41.61008 | 31 ft | 2 kts | 315° |
| 2026-05-07 21:15 | 41.60569 | 41.60999 | 31 ft | 0 kts | 346° |
| 2026-05-07 21:15 | 41.60577 | 41.61001 | 31 ft | 1 kts | 21° |
| 2026-05-07 21:15 | 41.60586 | 41.61011 | 31 ft | 1 kts | 47° |
| 2026-05-07 21:16 | 41.60593 | 41.61027 | 31 ft | 1 kts | 77° |
| 2026-05-07 21:16 | 41.60593 | 41.61049 | 32 ft | 2 kts | 89° |
| 2026-05-07 21:16 | 41.60593 | 41.61069 | 32 ft | 0 kts | 89° |
| 2026-05-07 21:16 | 41.60593 | 41.61076 | 32 ft | 0 kts | 90° |
| 2026-05-07 21:17 | 41.60593 | 41.61079 | 32 ft | 0 kts | 90° |